createdAt,value
2018-09-02T00:01:30.009Z,7.57
2018-09-02T00:03:58.624Z,6.73
2018-09-02T00:06:27.380Z,4.43
2018-09-02T00:08:55.967Z,7.07
2018-09-02T00:11:24.542Z,5.60
2018-09-02T00:13:53.055Z,4.87
2018-09-02T00:16:21.622Z,4.70
2018-09-02T00:18:50.167Z,7.27
2018-09-02T00:21:18.674Z,5.17
2018-09-02T00:23:47.163Z,6.47
2018-09-02T00:26:15.704Z,6.77
2018-09-02T00:28:44.260Z,6.67
2018-09-02T00:31:12.784Z,4.67
2018-09-02T00:33:41.536Z,3.93
2018-09-02T00:36:09.999Z,4.87
2018-09-02T00:38:38.536Z,4.50
2018-09-02T00:41:07.180Z,4.33
2018-09-02T00:43:35.703Z,6.83
2018-09-02T00:46:04.430Z,5.73
2018-09-02T00:48:32.941Z,6.13
2018-09-02T00:51:01.528Z,3.77
2018-09-02T00:53:30.084Z,6.37
2018-09-02T00:55:58.702Z,5.03
2018-09-02T00:58:27.251Z,3.23
2018-09-02T01:00:55.754Z,6.03
2018-09-02T01:03:24.292Z,4.37
2018-09-02T01:05:52.808Z,4.77
2018-09-02T01:08:21.278Z,4.47
2018-09-02T01:10:50.161Z,4.67
2018-09-02T01:13:19.033Z,5.80
2018-09-02T01:15:48.447Z,5.30
2018-09-02T01:18:17.540Z,5.37
2018-09-02T01:20:46.285Z,4.17
2018-09-02T01:23:14.981Z,4.07
2018-09-02T01:25:43.728Z,4.70
2018-09-02T01:28:12.311Z,4.07
2018-09-02T01:30:40.837Z,4.27
2018-09-02T01:33:09.826Z,5.37
2018-09-02T01:35:38.395Z,7.40
2018-09-02T01:38:07.130Z,4.20
2018-09-02T01:40:36.231Z,4.17
2018-09-02T01:43:05.562Z,5.63
2018-09-02T01:45:34.440Z,6.77
2018-09-02T01:48:03.624Z,6.73
2018-09-02T01:50:32.198Z,4.00
2018-09-02T01:53:00.736Z,5.70
2018-09-02T01:55:29.336Z,3.10
2018-09-02T01:57:57.903Z,6.57
2018-09-02T02:00:26.504Z,3.80
2018-09-02T02:02:55.063Z,5.50
2018-09-02T02:05:23.579Z,5.60
2018-09-02T02:07:52.107Z,4.30
2018-09-02T02:10:20.683Z,5.67
2018-09-02T02:12:49.192Z,3.43
2018-09-02T02:15:17.710Z,4.13
2018-09-02T02:17:46.203Z,5.50
2018-09-02T02:20:21.439Z,4.73
2018-09-02T02:22:49.934Z,4.93
2018-09-02T02:25:18.524Z,5.37
2018-09-02T02:27:47.076Z,5.73
2018-09-02T02:30:15.684Z,6.87
2018-09-02T02:32:44.263Z,5.73
2018-09-02T02:35:12.893Z,10.70
2018-09-02T02:37:41.599Z,3.60
2018-09-02T02:40:10.507Z,5.70
2018-09-02T02:42:39.236Z,4.27
2018-09-02T02:45:07.855Z,3.73
2018-09-02T02:47:36.759Z,4.93
2018-09-02T02:50:05.746Z,5.43
2018-09-02T02:52:40.620Z,4.10
2018-09-02T02:55:09.780Z,7.43
2018-09-02T02:57:38.278Z,7.70
2018-09-02T03:00:07.344Z,5.07
2018-09-02T03:02:36.112Z,6.00
2018-09-02T03:05:04.774Z,4.50
2018-09-02T03:07:33.317Z,4.73
2018-09-02T03:10:01.839Z,5.33
2018-09-02T03:12:30.404Z,5.00
2018-09-02T03:14:59.030Z,3.83
2018-09-02T03:17:27.652Z,4.70
2018-09-02T03:19:56.230Z,4.70
2018-09-02T03:22:24.746Z,3.83
2018-09-02T03:24:53.324Z,5.30
2018-09-02T03:27:21.917Z,6.17
2018-09-02T03:29:50.496Z,6.90
2018-09-02T03:32:19.104Z,5.23
2018-09-02T03:34:47.824Z,4.97
2018-09-02T03:37:16.399Z,5.60
2018-09-02T03:39:44.938Z,4.37
2018-09-02T03:42:13.569Z,6.93
2018-09-02T03:44:42.135Z,5.30
2018-09-02T03:47:10.638Z,5.33
2018-09-02T03:49:39.304Z,4.70
2018-09-02T03:52:07.831Z,6.80
2018-09-02T03:54:36.540Z,7.90
2018-09-02T03:57:05.124Z,5.10
2018-09-02T03:59:33.636Z,5.87
2018-09-02T04:02:02.115Z,6.10
2018-09-02T04:04:30.963Z,7.40
2018-09-02T04:06:59.564Z,6.67
2018-09-02T04:09:28.074Z,5.97
2018-09-02T04:11:56.755Z,5.90
2018-09-02T04:14:25.295Z,6.17
2018-09-02T04:16:53.919Z,6.57
2018-09-02T04:19:22.499Z,6.23
2018-09-02T04:21:51.095Z,5.87
2018-09-02T04:24:19.709Z,7.00
2018-09-02T04:26:48.247Z,6.43
2018-09-02T04:29:16.766Z,5.40
2018-09-02T04:31:45.304Z,7.93
2018-09-02T04:34:13.842Z,8.67
2018-09-02T04:36:42.418Z,7.03
2018-09-02T04:39:10.959Z,9.50
2018-09-02T04:41:39.967Z,9.73
2018-09-02T04:44:08.453Z,6.00
2018-09-02T04:46:37.019Z,8.20
2018-09-02T04:49:05.831Z,6.60
2018-09-02T04:51:34.345Z,6.07
2018-09-02T04:54:02.905Z,6.43
2018-09-02T04:56:31.488Z,5.80
2018-09-02T04:58:59.973Z,7.13
2018-09-02T05:01:28.571Z,6.23
2018-09-02T05:03:57.153Z,7.87
2018-09-02T05:06:25.649Z,8.30
2018-09-02T05:08:54.190Z,7.73
2018-09-02T05:11:22.691Z,8.23
2018-09-02T05:13:51.315Z,6.78
2018-09-02T05:16:19.873Z,7.97
2018-09-02T05:18:48.582Z,8.43
2018-09-02T05:21:17.151Z,7.58
2018-09-02T05:23:45.767Z,8.10
2018-09-02T05:26:14.374Z,8.07
2018-09-02T05:28:42.851Z,7.15
2018-09-02T05:31:11.367Z,6.70
2018-09-02T05:33:39.952Z,7.20
2018-09-02T05:36:08.712Z,6.92
2018-09-02T05:38:37.352Z,7.37
2018-09-02T05:41:06.167Z,10.72
2018-09-02T05:43:34.744Z,7.72
2018-09-02T05:46:03.352Z,6.53
2018-09-02T05:48:31.861Z,7.60
2018-09-02T05:51:00.447Z,6.72
2018-09-02T05:53:28.952Z,7.97
2018-09-02T05:55:57.611Z,7.22
2018-09-02T05:58:26.149Z,7.40
2018-09-02T06:00:54.782Z,6.87
2018-09-02T06:03:23.273Z,7.45
2018-09-02T06:05:52.038Z,6.55
2018-09-02T06:08:20.703Z,6.55
2018-09-02T06:10:49.330Z,8.50
2018-09-02T06:13:17.899Z,7.87
2018-09-02T06:15:46.419Z,8.63
2018-09-02T06:18:14.923Z,6.17
2018-09-02T06:20:43.608Z,7.03
2018-09-02T06:23:12.217Z,6.90
2018-09-02T06:25:40.721Z,8.50
2018-09-02T06:28:09.245Z,9.20
2018-09-02T06:30:37.772Z,6.70
2018-09-02T06:33:06.411Z,6.37
2018-09-02T06:35:34.951Z,9.07
2018-09-02T06:38:03.543Z,8.63
2018-09-02T06:40:32.364Z,7.12
2018-09-02T06:43:00.971Z,6.30
2018-09-02T06:45:29.591Z,7.08
2018-09-02T06:47:58.181Z,6.60
2018-09-02T06:50:26.826Z,5.72
2018-09-02T06:52:55.481Z,7.58
2018-09-02T06:55:24.060Z,7.62
2018-09-02T06:57:52.584Z,7.80
2018-09-02T07:00:21.482Z,6.62
2018-09-02T07:02:50.556Z,7.67
2018-09-02T07:05:19.145Z,6.85
2018-09-02T07:07:47.860Z,7.12
2018-09-02T07:10:16.426Z,7.50
2018-09-02T07:12:45.205Z,6.10
2018-09-02T07:15:13.924Z,7.75
2018-09-02T07:17:42.512Z,6.00
2018-09-02T07:20:11.320Z,6.85
2018-09-02T07:22:40.355Z,6.47
2018-09-02T07:25:09.037Z,6.95
2018-09-02T07:27:37.627Z,6.72
2018-09-02T07:30:06.284Z,8.55
2018-09-02T07:32:34.904Z,6.73
2018-09-02T07:35:03.480Z,7.55
2018-09-02T07:37:32.017Z,6.80
2018-09-02T07:40:00.638Z,9.03
2018-09-02T07:42:29.237Z,7.40
2018-09-02T07:44:57.867Z,7.15
2018-09-02T07:47:26.500Z,8.85
2018-09-02T07:49:55.107Z,7.43
2018-09-02T07:52:23.807Z,7.50
2018-09-02T07:54:52.922Z,9.65
2018-09-02T07:57:21.766Z,7.60
2018-09-02T07:59:50.359Z,7.10
2018-09-02T08:02:19.117Z,6.40
2018-09-02T08:04:47.784Z,9.25
2018-09-02T08:07:16.457Z,6.80
2018-09-02T08:09:44.999Z,7.23
2018-09-02T08:12:13.595Z,7.80
2018-09-02T08:14:42.246Z,7.37
2018-09-02T08:17:10.908Z,6.40
2018-09-02T08:19:39.513Z,7.10
2018-09-02T08:22:08.130Z,7.22
2018-09-02T08:24:36.684Z,6.40
2018-09-02T08:27:05.411Z,8.50
2018-09-02T08:29:33.960Z,7.80
2018-09-02T08:32:02.646Z,6.80
2018-09-02T08:34:31.198Z,7.35
2018-09-02T08:36:59.954Z,7.53
2018-09-02T08:39:28.496Z,7.00
2018-09-02T08:41:57.258Z,7.85
2018-09-02T08:44:25.954Z,7.67
2018-09-02T08:46:54.569Z,7.97
2018-09-02T08:49:23.274Z,8.58
2018-09-02T08:51:51.929Z,9.65
2018-09-02T08:54:20.459Z,7.20
2018-09-02T08:56:49.212Z,6.92
2018-09-02T08:59:18.096Z,7.93
2018-09-02T09:01:46.749Z,9.00
2018-09-02T09:04:15.424Z,7.80
2018-09-02T09:06:44.036Z,11.03
2018-09-02T09:09:12.861Z,8.23
2018-09-02T09:11:41.254Z,8.70
2018-09-02T09:14:10.008Z,8.85
2018-09-02T09:16:38.843Z,10.28
2018-09-02T09:19:07.527Z,8.53
2018-09-02T09:21:36.201Z,7.60
2018-09-02T09:24:04.822Z,7.20
2018-09-02T09:26:33.595Z,8.48
2018-09-02T09:29:02.271Z,7.10
2018-09-02T09:31:30.856Z,8.50
2018-09-02T09:33:59.893Z,8.03
2018-09-02T09:36:28.768Z,8.45
2018-09-02T09:38:57.331Z,7.60
2018-09-02T09:41:25.968Z,8.07
2018-09-02T09:43:54.640Z,8.35
2018-09-02T09:46:23.187Z,8.55
2018-09-02T09:48:51.876Z,8.78
2018-09-02T09:51:20.601Z,9.00
2018-09-02T09:53:49.415Z,8.83
2018-09-02T09:56:18.118Z,7.95
2018-09-02T09:58:46.624Z,7.97
2018-09-02T10:01:15.284Z,8.50
2018-09-02T10:03:43.856Z,8.55
2018-09-02T10:06:12.557Z,9.23
2018-09-02T10:08:41.069Z,8.33
2018-09-02T10:11:09.662Z,8.68
2018-09-02T10:13:38.505Z,8.60
2018-09-02T10:16:07.460Z,8.87
2018-09-02T10:18:36.008Z,8.00
2018-09-02T10:21:04.618Z,8.10
2018-09-02T10:23:33.260Z,8.10
2018-09-02T10:26:01.953Z,9.45
2018-09-02T10:28:30.667Z,9.47
2018-09-02T10:30:59.240Z,8.58
2018-09-02T10:33:27.935Z,9.23
2018-09-02T10:35:56.471Z,8.70
2018-09-02T10:38:25.044Z,9.73
2018-09-02T10:40:53.678Z,9.13
2018-09-02T10:43:22.423Z,8.60
2018-09-02T10:45:50.940Z,9.05
2018-09-02T10:48:19.609Z,8.57
2018-09-02T10:50:48.279Z,9.15
2018-09-02T10:53:16.896Z,8.70
2018-09-02T10:55:45.506Z,8.83
2018-09-02T10:58:14.085Z,9.90
2018-09-02T11:00:42.724Z,9.00
2018-09-02T11:03:11.308Z,9.90
2018-09-02T11:05:40.055Z,9.00
2018-09-02T11:08:08.788Z,8.83
2018-09-02T11:10:37.393Z,9.07
2018-09-02T11:13:06.202Z,9.78
2018-09-02T11:15:34.809Z,8.70
2018-09-02T11:18:03.487Z,9.28
2018-09-02T11:20:32.298Z,8.40
2018-09-02T11:23:00.944Z,8.88
2018-09-02T11:25:29.668Z,8.60
2018-09-02T11:27:58.257Z,8.68
2018-09-02T11:30:26.815Z,7.97
2018-09-02T11:32:55.454Z,8.50
2018-09-02T11:35:24.053Z,8.10
2018-09-02T11:37:52.581Z,8.53
2018-09-02T11:40:21.229Z,7.70
2018-09-02T11:42:49.870Z,7.70
2018-09-02T11:45:18.629Z,7.20
2018-09-02T11:47:47.199Z,7.50
2018-09-02T11:50:15.780Z,6.65
2018-09-02T11:52:44.717Z,6.80
2018-09-02T11:55:13.521Z,5.33
2018-09-02T11:57:42.408Z,5.10
2018-09-02T12:00:11.093Z,4.80
2018-09-02T12:02:39.993Z,5.30
2018-09-02T12:05:08.711Z,4.20
2018-09-02T12:07:37.399Z,5.42
2018-09-02T12:10:06.107Z,5.50
2018-09-02T12:12:34.732Z,5.28
2018-09-02T12:15:03.474Z,5.12
2018-09-02T12:17:32.223Z,5.50
2018-09-02T12:20:00.886Z,4.90
2018-09-02T12:22:29.518Z,5.42
2018-09-02T12:24:58.095Z,5.15
2018-09-02T12:27:26.782Z,4.60
2018-09-02T12:29:55.416Z,4.25
2018-09-02T12:32:23.920Z,5.10
2018-09-02T12:34:52.552Z,5.28
2018-09-02T12:37:21.140Z,5.13
2018-09-02T12:39:49.937Z,5.08
2018-09-02T12:42:18.654Z,4.50
2018-09-02T12:44:47.401Z,4.95
2018-09-02T12:47:16.209Z,5.03
2018-09-02T12:49:45.071Z,4.97
2018-09-02T12:52:13.805Z,4.30
2018-09-02T12:54:42.373Z,4.60
2018-09-02T12:57:11.370Z,5.17
2018-09-02T12:59:40.179Z,5.10
2018-09-02T13:02:08.828Z,5.60
2018-09-02T13:04:37.524Z,5.85
2018-09-02T13:07:06.428Z,5.10
2018-09-02T13:09:35.272Z,5.47
2018-09-02T13:12:03.768Z,5.80
2018-09-02T13:14:32.387Z,6.05
2018-09-02T13:17:01.215Z,6.00
2018-09-02T13:19:29.855Z,6.40
2018-09-02T13:21:58.603Z,6.15
2018-09-02T13:24:27.255Z,6.37
2018-09-02T13:26:55.872Z,6.33
2018-09-02T13:29:24.520Z,7.25
2018-09-02T13:31:53.227Z,6.47
2018-09-02T13:34:22.123Z,6.70
2018-09-02T13:36:50.935Z,8.27
2018-09-02T13:39:19.658Z,7.55
2018-09-02T13:41:48.450Z,7.65
2018-09-02T13:44:17.123Z,8.55
2018-09-02T13:46:45.896Z,9.10
2018-09-02T13:49:15.157Z,8.60
2018-09-02T13:51:43.768Z,8.50
2018-09-02T13:54:13.001Z,7.67
2018-09-02T13:56:42.579Z,8.68
2018-09-02T13:59:11.273Z,8.25
2018-09-02T14:01:40.847Z,8.35
2018-09-02T14:04:10.190Z,8.65
2018-09-02T14:06:38.795Z,8.20
2018-09-02T14:09:08.546Z,8.18
2018-09-02T14:11:38.110Z,8.65
2018-09-02T14:14:07.097Z,7.90
2018-09-02T14:16:35.784Z,8.45
2018-09-02T14:19:04.668Z,8.27
2018-09-02T14:21:33.347Z,7.80
2018-09-02T14:24:02.088Z,8.98
2018-09-02T14:26:30.872Z,8.08
2018-09-02T14:28:59.452Z,7.42
2018-09-02T14:31:28.168Z,8.33
2018-09-02T14:33:56.797Z,8.30
2018-09-02T14:36:25.508Z,8.50
2018-09-02T14:38:54.168Z,8.25
2018-09-02T14:41:22.876Z,8.30
2018-09-02T14:43:51.502Z,8.38
2018-09-02T14:46:20.134Z,9.15
2018-09-02T14:48:48.912Z,9.25
2018-09-02T14:51:17.650Z,8.77
2018-09-02T14:53:46.325Z,8.53
2018-09-02T14:56:15.181Z,9.00
2018-09-02T14:58:44.036Z,9.35
2018-09-02T15:01:12.880Z,9.53
2018-09-02T15:03:41.765Z,9.55
2018-09-02T15:06:10.712Z,9.50
2018-09-02T15:08:39.305Z,9.88
2018-09-02T15:11:07.920Z,9.73
2018-09-02T15:13:36.619Z,9.90
2018-09-02T15:16:05.388Z,10.58
2018-09-02T15:18:34.194Z,9.50
2018-09-02T15:21:02.780Z,9.87
2018-09-02T15:23:31.671Z,10.15
2018-09-02T15:26:00.417Z,10.72
2018-09-02T15:28:28.980Z,9.15
2018-09-02T15:30:57.593Z,10.60
2018-09-02T15:33:26.294Z,11.22
2018-09-02T15:35:55.029Z,10.47
2018-09-02T15:38:23.739Z,10.75
2018-09-02T15:40:52.411Z,11.35
2018-09-02T15:43:20.985Z,11.45
2018-09-02T15:45:49.568Z,11.20
2018-09-02T15:48:18.354Z,11.10
2018-09-02T15:50:47.080Z,11.65
2018-09-02T15:53:15.634Z,11.43
2018-09-02T15:55:44.232Z,11.70
2018-09-02T15:58:12.823Z,10.63
2018-09-02T16:00:41.529Z,10.45
2018-09-02T16:03:10.380Z,11.45
2018-09-02T16:05:39.280Z,11.78
2018-09-02T16:08:08.073Z,11.25
2018-09-02T16:10:36.680Z,12.05
2018-09-02T16:13:05.812Z,11.55
2018-09-02T16:15:34.580Z,12.30
2018-09-02T16:18:03.134Z,12.40
2018-09-02T16:20:31.832Z,13.40
2018-09-02T16:23:00.529Z,12.30
2018-09-02T16:25:29.173Z,12.50
2018-09-02T16:27:57.839Z,13.48
2018-09-02T16:30:26.855Z,13.53
2018-09-02T16:32:55.698Z,13.08
2018-09-02T16:35:24.593Z,12.75
2018-09-02T16:37:53.397Z,12.98
2018-09-02T16:40:22.034Z,12.82
2018-09-02T16:42:50.735Z,14.18
2018-09-02T16:45:19.504Z,13.65
2018-09-02T16:47:48.222Z,14.30
2018-09-02T16:50:16.908Z,14.20
2018-09-02T16:52:45.830Z,14.30
2018-09-02T16:55:14.611Z,14.60
2018-09-02T16:57:43.301Z,14.45
2018-09-02T17:00:11.853Z,14.70
2018-09-02T17:02:40.465Z,14.15
2018-09-02T17:05:13.386Z,15.00
2018-09-02T17:07:41.975Z,14.25
2018-09-02T17:10:10.770Z,14.07
2018-09-02T17:12:39.646Z,14.40
2018-09-02T17:15:08.463Z,14.98
2018-09-02T17:17:37.100Z,15.38
2018-09-02T17:20:06.180Z,14.45
2018-09-02T17:22:35.142Z,14.93
2018-09-02T17:25:04.100Z,13.48
2018-09-02T17:27:32.796Z,13.97
2018-09-02T17:30:01.468Z,14.30
2018-09-02T17:32:31.245Z,14.25
2018-09-02T17:34:59.982Z,14.38
2018-09-02T17:37:28.598Z,14.65
2018-09-02T17:39:57.293Z,14.93
2018-09-02T17:42:26.248Z,14.40
2018-09-02T17:44:55.169Z,14.80
2018-09-02T17:47:24.019Z,14.70
2018-09-02T17:49:52.718Z,13.88
2018-09-02T17:52:21.320Z,14.40
2018-09-02T17:54:50.489Z,15.03
2018-09-02T17:57:19.325Z,15.93
2018-09-02T17:59:47.961Z,14.98
2018-09-02T18:02:20.748Z,15.10
2018-09-02T18:04:49.578Z,15.30
2018-09-02T18:07:18.634Z,13.80
2018-09-02T18:09:47.287Z,13.45
2018-09-02T18:12:16.565Z,14.20
2018-09-02T18:14:45.649Z,14.33
2018-09-02T18:17:14.424Z,13.50
2018-09-02T18:19:43.224Z,14.28
2018-09-02T18:22:18.769Z,14.80
2018-09-02T18:24:47.763Z,15.05
2018-09-02T18:27:18.599Z,14.90
2018-09-02T18:29:52.819Z,14.70
2018-09-02T18:32:21.475Z,14.55
2018-09-02T18:34:52.298Z,14.63
2018-09-02T18:37:20.935Z,13.68
2018-09-02T18:39:50.080Z,13.70
2018-09-02T18:42:19.091Z,14.13
2018-09-02T18:44:48.002Z,14.10
2018-09-02T18:47:17.328Z,14.40
2018-09-02T18:49:46.585Z,14.00
2018-09-02T18:52:16.016Z,13.60
2018-09-02T18:54:44.694Z,12.73
2018-09-02T18:57:13.478Z,13.45
2018-09-02T18:59:42.774Z,13.53
2018-09-02T19:02:12.271Z,13.48
2018-09-02T19:04:41.362Z,13.22
2018-09-02T19:07:10.243Z,13.25
2018-09-02T19:09:39.349Z,13.40
2018-09-02T19:12:08.996Z,13.88
2018-09-02T19:14:38.030Z,13.60
2018-09-02T19:17:07.293Z,13.68
2018-09-02T19:19:36.447Z,14.15
2018-09-02T19:22:05.741Z,13.70
2018-09-02T19:24:38.183Z,13.95
2018-09-02T19:27:06.929Z,13.33
2018-09-02T19:29:36.219Z,14.28
2018-09-02T19:32:05.086Z,13.72
2018-09-02T19:34:34.086Z,14.05
2018-09-02T19:37:02.908Z,14.07
2018-09-02T19:39:31.761Z,13.98
2018-09-02T19:42:00.809Z,13.60
2018-09-02T19:44:29.468Z,15.10
2018-09-02T19:46:58.449Z,14.80
2018-09-02T19:49:28.523Z,14.28
2018-09-02T19:51:57.373Z,16.07
2018-09-02T19:54:26.162Z,12.43
2018-09-02T19:56:55.343Z,14.70
2018-09-02T19:59:24.113Z,15.28
2018-09-02T20:01:53.646Z,15.70
2018-09-02T20:04:22.460Z,16.40
2018-09-02T20:06:51.326Z,15.48
2018-09-02T20:09:20.110Z,17.10
2018-09-02T20:11:48.951Z,16.67
2018-09-02T20:14:17.623Z,15.53
2018-09-02T20:16:46.349Z,15.43
2018-09-02T20:19:15.136Z,16.30
2018-09-02T20:21:44.114Z,16.90
2018-09-02T20:24:12.893Z,15.70
2018-09-02T20:26:41.532Z,16.00
2018-09-02T20:29:10.128Z,15.83
2018-09-02T20:31:38.953Z,16.27
2018-09-02T20:34:07.556Z,16.82
2018-09-02T20:36:36.189Z,15.80
2018-09-02T20:39:07.456Z,16.97
2018-09-02T20:41:36.154Z,15.90
2018-09-02T20:44:04.727Z,16.93
2018-09-02T20:46:33.393Z,16.75
2018-09-02T20:49:02.049Z,17.62
2018-09-02T20:51:30.898Z,16.77
2018-09-02T20:53:59.519Z,17.13
2018-09-02T20:56:28.324Z,17.32
2018-09-02T20:58:56.852Z,16.97
2018-09-02T21:01:25.531Z,17.23
2018-09-02T21:03:54.299Z,17.10
2018-09-02T21:06:23.095Z,18.00
2018-09-02T21:08:51.868Z,18.30
2018-09-02T21:11:20.562Z,17.37
2018-09-02T21:13:49.101Z,17.23
2018-09-02T21:16:18.022Z,17.92
2018-09-02T21:18:46.616Z,18.05
2018-09-02T21:21:15.413Z,17.30
2018-09-02T21:23:44.006Z,18.20
2018-09-02T21:26:12.694Z,15.00
2018-09-02T21:28:41.374Z,17.00
2018-09-02T21:31:10.047Z,16.03
2018-09-02T21:33:38.976Z,17.40
2018-09-02T21:36:07.753Z,17.75
2018-09-02T21:38:36.405Z,16.30
2018-09-02T21:41:05.245Z,16.75
2018-09-02T21:43:33.830Z,16.50
2018-09-02T21:46:02.515Z,15.88
2018-09-02T21:48:31.184Z,16.00
2018-09-02T21:51:00.091Z,16.42
2018-09-02T21:53:29.491Z,15.85
2018-09-02T21:55:58.161Z,16.12
2018-09-02T21:58:27.025Z,17.07
2018-09-02T22:00:55.676Z,17.77
2018-09-02T22:03:24.280Z,16.42
2018-09-02T22:05:53.022Z,17.10
2018-09-02T22:08:21.631Z,17.27
2018-09-02T22:10:50.296Z,15.93
2018-09-02T22:13:19.156Z,17.45
2018-09-02T22:15:47.695Z,18.35
2018-09-02T22:18:16.268Z,16.10
2018-09-02T22:20:44.825Z,16.70
2018-09-02T22:23:13.479Z,17.20
2018-09-02T22:25:42.189Z,16.77
2018-09-02T22:28:10.655Z,18.10
2018-09-02T22:30:39.298Z,17.77
